Time;durP1;ratioP1;P1;durP2;ratioP2;P2;SDS_P1;SDS_P2;PMS_P1;PMS_P2;Temp;Humidity;BMP_temperature;BMP_pressure;BME280_temperature;BME280_humidity;BME280_pressure;Samples;Min_cycle;Max_cycle;Signal;HPM_P1;HPM_P2
2022/06/21 00:02:03;;;;;;;0.77;0.77;;;;;;;;;;5096343;28;20416;-86
2022/06/21 00:04:29;;;;;;;0.70;0.70;;;;;;;;;;5097796;28;20062;-86
2022/06/21 00:06:56;;;;;;;0.60;0.60;;;;;;;;;;5090427;28;20391;-86
2022/06/21 00:09:23;;;;;;;0.70;0.70;;;;;;;;;;5079276;28;20031;-85
2022/06/21 00:11:49;;;;;;;0.70;0.70;;;;;;;;;;5100030;28;20028;-86
2022/06/21 00:14:14;;;;;;;0.77;0.70;;;;;;;;;;5098332;28;20141;-85
2022/06/21 00:16:40;;;;;;;0.68;0.68;;;;;;;;;;5098992;28;20035;-83
2022/06/21 00:19:10;;;;;;;0.70;0.70;;;;;;;;;;5087573;28;20027;-84
2022/06/21 00:21:37;;;;;;;;;;;;;;;;;;5097155;28;20020;-86
2022/06/21 00:24:03;;;;;;;0.68;0.68;;;;;;;;;;5104691;28;19995;-85
2022/06/21 00:26:30;;;;;;;0.88;0.80;;;;;;;;;;5099117;28;20100;-84
2022/06/21 00:28:55;;;;;;;0.80;0.80;;;;;;;;;;5081079;28;20476;-87
2022/06/21 00:31:27;;;;;;;1.20;0.90;;;;;;;;;;5087298;28;20032;-86
2022/06/21 00:33:53;;;;;;;1.00;0.90;;;;;;;;;;5098561;28;20028;-85
2022/06/21 00:36:32;;;;;;;0.85;0.68;;;;;;;;;;5081658;28;20024;-85
2022/06/21 00:38:59;;;;;;;1.23;0.80;;;;;;;;;;5078611;28;20469;-86
2022/06/21 00:41:41;;;;;;;1.10;1.00;;;;;;;;;;5093995;28;20207;-85
2022/06/21 00:44:11;;;;;;;0.65;0.63;;;;;;;;;;5093339;28;20024;-87
2022/06/21 00:46:45;;;;;;;0.80;0.80;;;;;;;;;;5092121;28;20430;-86
2022/06/21 00:49:23;;;;;;;0.77;0.77;;;;;;;;;;5094218;28;20054;-87
2022/06/21 00:51:51;;;;;;;0.80;0.80;;;;;;;;;;5085480;28;20099;-84
2022/06/21 00:54:23;;;;;;;1.00;0.90;;;;;;;;;;5075591;28;20024;-85
2022/06/21 00:56:57;;;;;;;1.42;1.00;;;;;;;;;;5092269;28;20028;-87
2022/06/21 00:59:32;;;;;;;0.90;0.90;;;;;;;;;;5091359;28;21352;-87
2022/06/21 01:02:02;;;;;;;0.88;0.82;;;;;;;;;;5070974;28;20471;-86
2022/06/21 01:04:39;;;;;;;0.98;0.88;;;;;;;;;;5076236;28;20028;-86
2022/06/21 01:07:08;;;;;;;0.70;0.70;;;;;;;;;;5073460;28;20036;-86
2022/06/21 01:09:38;;;;;;;2.03;1.00;;;;;;;;;;5070795;28;20036;-86
2022/06/21 01:12:11;;;;;;;;;;;;;;;;;;5089866;28;20023;-85
2022/06/21 01:14:41;;;;;;;1.05;0.95;;;;;;;;;;5074239;28;20367;-87
2022/06/21 01:17:09;;;;;;;0.95;0.90;;;;;;;;;;5075889;28;20016;-85
2022/06/21 01:19:55;;;;;;;0.82;0.82;;;;;;;;;;5089752;28;20119;-87
2022/06/21 01:22:38;;;;;;;1.00;0.80;;;;;;;;;;5092244;28;20050;-86
2022/06/21 01:25:22;;;;;;;1.60;0.90;;;;;;;;;;5075393;28;20028;-86
2022/06/21 01:27:48;;;;;;;1.08;0.98;;;;;;;;;;5075473;28;20036;-87
2022/06/21 01:30:14;;;;;;;0.85;0.85;;;;;;;;;;5093504;28;20016;-86
2022/06/21 01:32:40;;;;;;;1.10;1.00;;;;;;;;;;5093963;28;20024;-87
2022/06/21 01:35:12;;;;;;;1.52;0.95;;;;;;;;;;5078988;28;20028;-87
2022/06/21 01:37:38;;;;;;;1.45;0.90;;;;;;;;;;5075631;28;20031;-87
2022/06/21 01:40:12;;;;;;;0.95;0.80;;;;;;;;;;5075542;28;20035;-86
2022/06/21 01:42:52;;;;;;;0.80;0.80;;;;;;;;;;5090699;28;20479;-86
2022/06/21 01:45:23;;;;;;;1.20;1.10;;;;;;;;;;5075410;28;20028;-87
2022/06/21 01:48:09;;;;;;;1.08;0.98;;;;;;;;;;5073037;28;20055;-86
2022/06/21 01:50:36;;;;;;;1.08;0.88;;;;;;;;;;5093614;28;20494;-87
2022/06/21 01:53:03;;;;;;;0.90;0.82;;;;;;;;;;5093577;28;20035;-87
2022/06/21 01:55:39;;;;;;;0.80;0.80;;;;;;;;;;5075493;28;20493;-84
2022/06/21 01:58:06;;;;;;;0.85;0.70;;;;;;;;;;5091935;28;20043;-86
2022/06/21 02:00:34;;;;;;;0.77;0.77;;;;;;;;;;5092991;28;20484;-85
2022/06/21 02:03:07;;;;;;;0.88;0.77;;;;;;;;;;5090966;28;20035;-85
2022/06/21 02:05:46;;;;;;;0.77;0.77;;;;;;;;;;5071907;28;20023;-85
2022/06/21 02:08:14;;;;;;;0.90;0.90;;;;;;;;;;5091881;28;20035;-83
2022/06/21 02:10:45;;;;;;;2.03;1.00;;;;;;;;;;5093103;28;20384;-84
2022/06/21 02:13:27;;;;;;;0.98;0.80;;;;;;;;;;5073300;28;20536;-84
2022/06/21 02:16:15;;;;;;;0.80;0.80;;;;;;;;;;5092980;28;20024;-86
2022/06/21 02:18:44;;;;;;;0.88;0.88;;;;;;;;;;5071389;28;20016;-86
2022/06/21 02:21:16;;;;;;;1.15;0.93;;;;;;;;;;5092945;28;20043;-85
2022/06/21 02:23:42;;;;;;;2.00;0.90;;;;;;;;;;5093287;28;20024;-86
2022/06/21 02:26:10;;;;;;;0.93;0.82;;;;;;;;;;5074795;28;20077;-85
2022/06/21 02:28:36;;;;;;;0.90;0.90;;;;;;;;;;5092556;28;20024;-85
2022/06/21 02:31:02;;;;;;;0.73;0.73;;;;;;;;;;5093100;28;20476;-87
2022/06/21 02:33:30;;;;;;;1.50;0.73;;;;;;;;;;5074437;28;20089;-87
2022/06/21 02:36:06;;;;;;;0.65;0.65;;;;;;;;;;5093189;28;20035;-88
2022/06/21 02:38:39;;;;;;;1.27;0.80;;;;;;;;;;5100461;28;20078;-86
2022/06/21 02:41:29;;;;;;;1.08;0.90;;;;;;;;;;5094595;28;20483;-86
2022/06/21 02:44:10;;;;;;;1.33;0.82;;;;;;;;;;5109415;28;20023;-87
2022/06/21 02:46:39;;;;;;;1.13;0.73;;;;;;;;;;5092787;28;20031;-86
2022/06/21 02:49:12;;;;;;;0.60;0.60;;;;;;;;;;5093666;28;20032;-86
2022/06/21 02:51:43;;;;;;;0.98;0.70;;;;;;;;;;5107487;28;20020;-86
2022/06/21 02:54:16;;;;;;;0.95;0.80;;;;;;;;;;5108428;28;20035;-86
2022/06/21 02:56:48;;;;;;;1.00;0.90;;;;;;;;;;5111373;28;20038;-86
2022/06/21 02:59:15;;;;;;;0.63;0.63;;;;;;;;;;5112116;28;20030;-86
2022/06/21 03:01:53;;;;;;;0.80;0.77;;;;;;;;;;5093219;28;20030;-85
2022/06/21 03:04:27;;;;;;;0.70;0.70;;;;;;;;;;5108926;28;20027;-85
2022/06/21 03:06:56;;;;;;;0.85;0.73;;;;;;;;;;5093482;28;20023;-88
2022/06/21 03:09:25;;;;;;;0.93;0.90;;;;;;;;;;5127113;27;20448;-86
2022/06/21 03:11:58;;;;;;;2.22;1.00;;;;;;;;;;5126719;27;20535;-86
2022/06/21 03:14:27;;;;;;;1.20;1.10;;;;;;;;;;5111812;28;20475;-86
2022/06/21 03:16:56;;;;;;;0.80;0.80;;;;;;;;;;5107736;28;20016;-86
2022/06/21 03:19:38;;;;;;;0.70;0.70;;;;;;;;;;5093212;28;20051;-86
2022/06/21 03:22:14;;;;;;;0.90;0.90;;;;;;;;;;5092793;28;20722;-87
2022/06/21 03:24:40;;;;;;;0.80;0.80;;;;;;;;;;5108971;28;20040;-85
2022/06/21 03:27:25;;;;;;;1.02;0.93;;;;;;;;;;5110581;28;20035;-84
2022/06/21 03:29:51;;;;;;;0.90;0.90;;;;;;;;;;5078385;28;20502;-84
2022/06/21 03:32:16;;;;;;;1.30;0.90;;;;;;;;;;5090447;28;20106;-84
2022/06/21 03:34:43;;;;;;;0.80;0.77;;;;;;;;;;5091960;28;20463;-86
2022/06/21 03:37:09;;;;;;;1.30;1.00;;;;;;;;;;5090886;28;20020;-87
2022/06/21 03:42:23;;;;;;;1.33;1.15;;;;;;;;;;5108214;28;20038;-85
2022/06/21 03:44:55;;;;;;;0.80;0.80;;;;;;;;;;5091755;28;20047;-84
2022/06/21 03:47:20;;;;;;;0.95;0.90;;;;;;;;;;5110298;28;20070;-85
2022/06/21 03:50:00;;;;;;;1.15;1.00;;;;;;;;;;5092713;28;20081;-86
2022/06/21 03:52:44;;;;;;;1.58;1.20;;;;;;;;;;5091461;28;20402;-89
2022/06/21 03:55:22;;;;;;;1.70;1.10;;;;;;;;;;5092470;28;20031;-87
2022/06/21 03:58:15;;;;;;;1.50;0.95;;;;;;;;;;5111886;28;20023;-88
2022/06/21 04:00:58;;;;;;;1.42;1.00;;;;;;;;;;5092035;28;20076;-87
2022/06/21 04:03:30;;;;;;;1.17;0.93;;;;;;;;;;5089682;28;20118;-88
2022/06/21 04:06:02;;;;;;;1.25;1.00;;;;;;;;;;5095115;28;20623;-87
2022/06/21 04:09:29;;;;;;;1.10;1.00;;;;;;;;;;5111367;28;20027;-88
2022/06/21 04:12:08;;;;;;;1.45;1.10;;;;;;;;;;5032376;28;20072;-88
2022/06/21 04:15:05;;;;;;;1.17;1.00;;;;;;;;;;5016264;28;20041;-87
2022/06/21 04:17:34;;;;;;;1.20;1.10;;;;;;;;;;5056987;28;20044;-86
2022/06/21 04:20:12;;;;;;;1.73;1.10;;;;;;;;;;5099622;28;20023;-87
2022/06/21 04:22:49;;;;;;;1.17;1.08;;;;;;;;;;5098188;28;20030;-88
2022/06/21 04:25:30;;;;;;;1.67;1.30;;;;;;;;;;5115240;28;20255;-88
2022/06/21 04:28:14;;;;;;;1.35;1.10;;;;;;;;;;5093829;28;20024;-90
2022/06/21 04:30:46;;;;;;;1.42;1.10;;;;;;;;;;5096630;28;20118;-88
2022/06/21 04:33:21;;;;;;;1.38;1.00;;;;;;;;;;5097347;28;20360;-88
2022/06/21 04:36:19;;;;;;;1.58;1.10;;;;;;;;;;5096283;28;20032;-90
2022/06/21 04:39:00;;;;;;;1.55;1.23;;;;;;;;;;5096099;28;20047;-90
2022/06/21 04:41:47;;;;;;;1.48;1.13;;;;;;;;;;5110846;28;20111;-89
2022/06/21 04:44:26;;;;;;;1.27;1.17;;;;;;;;;;5096665;28;20027;-88
2022/06/21 04:46:57;;;;;;;1.20;1.10;;;;;;;;;;5096177;28;20149;-88
2022/06/21 04:49:31;;;;;;;1.23;1.13;;;;;;;;;;5097785;28;20038;-88
2022/06/21 04:52:10;;;;;;;1.23;1.10;;;;;;;;;;5114888;28;20027;-91
2022/06/21 04:54:37;;;;;;;1.95;1.55;;;;;;;;;;5094160;28;20038;-86
2022/06/21 04:57:14;;;;;;;2.10;1.33;;;;;;;;;;5094383;28;20053;-87
2022/06/21 04:59:42;;;;;;;1.63;1.42;;;;;;;;;;5116317;27;20348;-85
2022/06/21 05:02:18;;;;;;;1.63;1.40;;;;;;;;;;5095385;28;20070;-89
2022/06/21 05:04:47;;;;;;;1.98;1.38;;;;;;;;;;5095033;28;20051;-85
2022/06/21 05:07:22;;;;;;;1.75;1.45;;;;;;;;;;5112844;28;20031;-87
2022/06/21 05:09:49;;;;;;;3.78;1.50;;;;;;;;;;5108712;28;20020;-86
2022/06/21 05:12:22;;;;;;;1.73;1.50;;;;;;;;;;5111590;28;20020;-84
2022/06/21 05:14:53;;;;;;;3.00;1.90;;;;;;;;;;5114140;28;20455;-87
2022/06/21 05:17:19;;;;;;;2.28;2.08;;;;;;;;;;5111011;28;20027;-84
2022/06/21 05:19:51;;;;;;;2.35;2.00;;;;;;;;;;5112819;28;20069;-87
2022/06/21 05:22:28;;;;;;;2.33;1.98;;;;;;;;;;5094993;28;20020;-86
2022/06/21 05:24:55;;;;;;;2.60;2.00;;;;;;;;;;5111228;28;20020;-87
2022/06/21 05:27:25;;;;;;;2.55;2.20;;;;;;;;;;5093156;28;20031;-89
2022/06/21 05:30:17;;;;;;;2.40;2.20;;;;;;;;;;5113672;28;20028;-86
2022/06/21 05:32:48;;;;;;;3.75;2.20;;;;;;;;;;5101753;28;20122;-86
2022/06/21 05:35:21;;;;;;;3.88;2.47;;;;;;;;;;5090581;28;20048;-86
2022/06/21 05:37:55;;;;;;;3.25;2.40;;;;;;;;;;5093272;28;20536;-85
2022/06/21 05:40:45;;;;;;;2.72;2.17;;;;;;;;;;5095703;28;20535;-85
2022/06/21 05:43:17;;;;;;;4.00;2.30;;;;;;;;;;5113898;27;20353;-90
2022/06/21 05:45:49;;;;;;;2.80;2.25;;;;;;;;;;5089923;28;20497;-84
2022/06/21 05:48:23;;;;;;;3.22;2.15;;;;;;;;;;5110939;28;20042;-82
2022/06/21 05:50:50;;;;;;;3.05;2.40;;;;;;;;;;5105224;28;20034;-85
2022/06/21 05:53:29;;;;;;;3.40;2.17;;;;;;;;;;5108954;28;20080;-82
2022/06/21 05:55:57;;;;;;;2.10;1.90;;;;;;;;;;5093332;28;20107;-85
2022/06/21 05:58:27;;;;;;;3.08;2.25;;;;;;;;;;5095439;28;20027;-88
2022/06/21 06:01:21;;;;;;;2.47;2.00;;;;;;;;;;5112353;28;20030;-87
2022/06/21 06:04:28;;;;;;;8.10;2.78;;;;;;;;;;5108908;28;20068;-87
2022/06/21 06:06:56;;;;;;;2.30;2.10;;;;;;;;;;5046636;28;20036;-87
2022/06/21 06:09:26;;;;;;;3.45;2.08;;;;;;;;;;5085144;28;20507;-86
2022/06/21 06:12:00;;;;;;;;;;;;;;;;;;5098829;28;20027;-88
2022/06/21 06:14:57;;;;;;;2.85;2.55;;;;;;;;;;5127368;27;19915;-88
2022/06/21 06:17:47;;;;;;;3.13;2.33;;;;;;;;;;5093100;27;20519;-89
2022/06/21 06:20:12;;;;;;;2.67;2.08;;;;;;;;;;5111991;28;20030;-87
2022/06/21 06:22:49;;;;;;;2.58;2.00;;;;;;;;;;5118851;27;20028;-88
2022/06/21 06:25:36;;;;;;;4.38;2.33;;;;;;;;;;5109928;28;20028;-88
2022/06/21 06:28:08;;;;;;;3.92;2.50;;;;;;;;;;5091877;28;20379;-88
2022/06/21 06:30:51;;;;;;;2.72;2.25;;;;;;;;;;5123612;27;20027;-88
2022/06/21 06:33:40;;;;;;;4.43;2.47;;;;;;;;;;5113414;27;20024;-88
2022/06/21 06:36:22;;;;;;;2.72;2.42;;;;;;;;;;5105622;28;20024;-90
2022/06/21 06:38:53;;;;;;;4.78;2.63;;;;;;;;;;5109554;28;20418;-85
2022/06/21 06:41:26;;;;;;;4.32;2.88;;;;;;;;;;5095281;28;20402;-90
2022/06/21 06:44:02;;;;;;;3.42;2.70;;;;;;;;;;5092053;28;20023;-88
2022/06/21 06:46:29;;;;;;;3.53;2.90;;;;;;;;;;5102622;28;20032;-86
2022/06/21 06:49:05;;;;;;;3.67;3.00;;;;;;;;;;5085976;28;20426;-89
2022/06/21 06:51:39;;;;;;;3.15;2.70;;;;;;;;;;5110518;28;20373;-88
2022/06/21 06:54:14;;;;;;;4.40;2.53;;;;;;;;;;5110605;27;20456;-89
2022/06/21 06:57:04;;;;;;;2.95;2.63;;;;;;;;;;5092415;28;20023;-87
2022/06/21 06:59:30;;;;;;;3.70;2.50;;;;;;;;;;5113843;27;20495;-90
2022/06/21 07:02:20;;;;;;;2.88;2.45;;;;;;;;;;5090853;28;20032;-88
2022/06/21 07:04:52;;;;;;;3.20;1.83;;;;;;;;;;5092441;28;20115;-87
2022/06/21 07:07:27;;;;;;;5.45;2.17;;;;;;;;;;5088729;28;20454;-88
2022/06/21 07:09:57;;;;;;;3.95;2.88;;;;;;;;;;5111219;28;20475;-86
2022/06/21 07:12:27;;;;;;;5.05;3.10;;;;;;;;;;5091063;28;20027;-86
2022/06/21 07:14:54;;;;;;;2.05;1.40;;;;;;;;;;5093100;28;20483;-90
2022/06/21 07:17:29;;;;;;;2.42;1.40;;;;;;;;;;5094225;28;20030;-87
2022/06/21 07:19:55;;;;;;;2.03;1.40;;;;;;;;;;5111541;28;20028;-88
2022/06/21 07:22:25;;;;;;;2.03;1.60;;;;;;;;;;5109887;28;20484;-88
2022/06/21 07:25:18;;;;;;;2.30;1.67;;;;;;;;;;5113775;28;20019;-86
2022/06/21 07:27:47;;;;;;;2.38;1.75;;;;;;;;;;5094898;28;20392;-87
2022/06/21 07:30:16;;;;;;;2.25;1.50;;;;;;;;;;5090754;28;20023;-89
2022/06/21 07:33:07;;;;;;;7.53;6.78;;;;;;;;;;5114569;28;20019;-89
2022/06/21 07:35:43;;;;;;;2.38;1.42;;;;;;;;;;5111917;28;20023;-88
2022/06/21 07:38:18;;;;;;;4.22;1.83;;;;;;;;;;5110370;28;20043;-87
2022/06/21 07:40:53;;;;;;;2.28;1.48;;;;;;;;;;5089779;28;20434;-86
2022/06/21 07:43:45;;;;;;;3.60;1.60;;;;;;;;;;5111763;28;20466;-85
2022/06/21 07:46:20;;;;;;;2.97;1.60;;;;;;;;;;5109168;28;20107;-87
2022/06/21 07:48:53;;;;;;;8.35;2.20;;;;;;;;;;5091727;28;20028;-87
2022/06/21 07:51:24;;;;;;;2.03;1.38;;;;;;;;;;5094859;28;20035;-87
2022/06/21 07:53:52;;;;;;;3.97;1.55;;;;;;;;;;5108870;28;20080;-85
2022/06/21 07:56:41;;;;;;;3.08;1.70;;;;;;;;;;5094032;28;20031;-87
2022/06/21 07:59:13;;;;;;;4.13;1.90;;;;;;;;;;5108826;28;20383;-84
2022/06/21 08:07:36;;;;;;;3.20;1.60;;;;;;;;;;5107913;28;20062;-84
2022/06/21 08:10:08;;;;;;;2.47;1.70;;;;;;;;;;5092189;28;20023;-86
2022/06/21 08:12:34;;;;;;;2.25;1.65;;;;;;;;;;5089517;28;20023;-83
2022/06/21 08:15:00;;;;;;;1.70;1.60;;;;;;;;;;5102995;28;20039;-84
2022/06/21 08:17:53;;;;;;;1.60;1.50;;;;;;;;;;5110408;28;20121;-85
2022/06/21 08:20:31;;;;;;;1.50;1.40;;;;;;;;;;5105135;28;20028;-85
2022/06/21 08:23:20;;;;;;;2.78;1.70;;;;;;;;;;5090839;28;20028;-85
2022/06/21 08:25:54;;;;;;;2.38;1.60;;;;;;;;;;5108356;28;20027;-84
2022/06/21 08:28:36;;;;;;;2.47;1.75;;;;;;;;;;5111428;28;20020;-85
2022/06/21 08:31:09;;;;;;;2.33;1.50;;;;;;;;;;5092729;28;20024;-84
2022/06/21 08:33:39;;;;;;;1.60;1.50;;;;;;;;;;5087954;28;20471;-84
2022/06/21 08:36:10;;;;;;;2.00;1.70;;;;;;;;;;5105842;28;20037;-84
2022/06/21 08:38:49;;;;;;;2.20;1.50;;;;;;;;;;5120214;28;20055;-82
2022/06/21 08:44:18;;;;;;;4.60;2.00;;;;;;;;;;5109164;28;20042;-85
2022/06/21 08:47:21;;;;;;;1.80;1.70;;;;;;;;;;5089428;28;20103;-90
2022/06/21 08:50:12;;;;;;;2.35;1.80;;;;;;;;;;5101807;28;20031;-88
2022/06/21 08:52:55;;;;;;;2.05;1.65;;;;;;;;;;5111956;28;20028;-87
2022/06/21 08:55:36;;;;;;;3.33;1.85;;;;;;;;;;5113111;28;20027;-86
2022/06/21 08:58:11;;;;;;;2.45;2.00;;;;;;;;;;5096949;28;20026;-89
2022/06/21 09:01:05;;;;;;;4.05;1.75;;;;;;;;;;5113165;28;20414;-87
2022/06/21 09:03:53;;;;;;;2.63;2.05;;;;;;;;;;5113273;28;20030;-84
2022/06/21 09:06:42;;;;;;;3.50;2.10;;;;;;;;;;5096056;28;20379;-87
2022/06/21 09:09:20;;;;;;;;;;;;;;;;;;5113342;28;20390;-86
2022/06/21 09:12:18;;;;;;;4.25;2.30;;;;;;;;;;5112665;28;19915;-87
2022/06/21 09:15:09;;;;;;;2.00;1.80;;;;;;;;;;5096205;28;20389;-85
2022/06/21 09:17:58;;;;;;;3.92;2.10;;;;;;;;;;5096169;28;20302;-88
2022/06/21 09:20:27;;;;;;;2.58;1.50;;;;;;;;;;5114092;28;20612;-87
2022/06/21 09:23:08;;;;;;;3.08;1.98;;;;;;;;;;5097039;28;20483;-86
2022/06/21 09:26:01;;;;;;;2.55;1.90;;;;;;;;;;5094988;28;20031;-85
2022/06/21 09:28:52;;;;;;;3.92;2.10;;;;;;;;;;5112637;28;20052;-86
2022/06/21 09:31:43;;;;;;;2.22;1.90;;;;;;;;;;5095419;28;20427;-86
2022/06/21 09:34:27;;;;;;;2.10;1.90;;;;;;;;;;5113343;28;20029;-89
2022/06/21 09:37:07;;;;;;;2.38;1.80;;;;;;;;;;5114746;28;20088;-85
2022/06/21 09:39:39;;;;;;;2.42;2.10;;;;;;;;;;5094891;28;20109;-86
2022/06/21 09:42:18;;;;;;;2.08;1.80;;;;;;;;;;5113547;28;20467;-86
2022/06/21 09:44:51;;;;;;;2.80;2.10;;;;;;;;;;5113212;28;20049;-87
2022/06/21 09:47:28;;;;;;;2.40;1.95;;;;;;;;;;5111444;28;21466;-87
2022/06/21 09:50:14;;;;;;;3.10;1.83;;;;;;;;;;5096760;28;20051;-84
2022/06/21 09:52:47;;;;;;;1.80;1.70;;;;;;;;;;5111180;28;20035;-87
2022/06/21 09:55:28;;;;;;;2.70;2.10;;;;;;;;;;5093589;28;20499;-85
2022/06/21 09:58:05;;;;;;;2.22;1.90;;;;;;;;;;5107515;28;20058;-86
2022/06/21 10:01:00;;;;;;;3.90;1.90;;;;;;;;;;5092206;28;20031;-86
2022/06/21 10:03:51;;;;;;;3.80;2.13;;;;;;;;;;5109071;28;20118;-88
2022/06/21 10:06:40;;;;;;;2.97;1.73;;;;;;;;;;5112909;28;20027;-84
2022/06/21 10:09:06;;;;;;;;;;;;;;;;;;5111710;28;20034;-87
2022/06/21 10:12:05;;;;;;;3.13;1.95;;;;;;;;;;5112416;28;19911;-89
2022/06/21 10:14:39;;;;;;;2.90;2.10;;;;;;;;;;5101453;28;20035;-87
2022/06/21 10:17:30;;;;;;;2.65;1.80;;;;;;;;;;5113919;28;20027;-87
2022/06/21 10:20:13;;;;;;;2.90;1.90;;;;;;;;;;5116126;27;20057;-90
2022/06/21 10:23:16;;;;;;;3.60;2.20;;;;;;;;;;5093301;28;20023;-87
2022/06/21 10:26:04;;;;;;;3.22;1.90;;;;;;;;;;5093326;28;20020;-88
2022/06/21 10:28:36;;;;;;;2.75;2.00;;;;;;;;;;5115384;28;20036;-88
2022/06/21 10:31:19;;;;;;;2.05;1.80;;;;;;;;;;5095895;28;20026;-86
2022/06/21 10:33:53;;;;;;;3.00;1.80;;;;;;;;;;5113490;28;20030;-90
2022/06/21 10:36:51;;;;;;;3.17;1.95;;;;;;;;;;5112311;28;20069;-88
2022/06/21 10:39:28;;;;;;;2.17;1.85;;;;;;;;;;5083048;28;20503;-86
2022/06/21 10:45:24;;;;;;;2.03;1.58;;;;;;;;;;5091578;28;20082;-88
2022/06/21 10:48:11;;;;;;;2.13;1.90;;;;;;;;;;5073955;28;20502;-88
2022/06/21 10:50:44;;;;;;;1.90;1.70;;;;;;;;;;5092136;28;20028;-87
2022/06/21 10:53:16;;;;;;;2.75;2.00;;;;;;;;;;5073718;28;20028;-90
2022/06/21 10:58:46;;;;;;;5.38;2.05;;;;;;;;;;5055414;28;20055;-86
2022/06/21 11:01:28;;;;;;;2.35;1.90;;;;;;;;;;5072856;28;20081;-86
2022/06/21 11:04:09;;;;;;;2.05;1.85;;;;;;;;;;5072378;28;20056;-91
2022/06/21 11:06:55;;;;;;;2.88;1.90;;;;;;;;;;5090389;28;20488;-87
2022/06/21 11:09:40;;;;;;;2.85;1.70;;;;;;;;;;5070590;28;20024;-88
2022/06/21 11:15:33;;;;;;;2.03;1.65;;;;;;;;;;5085039;28;20078;-92
2022/06/21 11:18:23;;;;;;;3.20;1.80;;;;;;;;;;5070820;28;20024;-87
2022/06/21 11:21:07;;;;;;;2.65;1.95;;;;;;;;;;5087647;28;20059;-86
2022/06/21 11:23:38;;;;;;;3.85;1.95;;;;;;;;;;5090957;28;20024;-85
2022/06/21 11:26:18;;;;;;;3.85;1.90;;;;;;;;;;5100364;28;20023;-86
2022/06/21 11:28:51;;;;;;;1.98;1.77;;;;;;;;;;5073272;28;20075;-90
2022/06/21 11:31:46;;;;;;;2.40;1.80;;;;;;;;;;5091860;28;20024;-87
2022/06/21 11:34:34;;;;;;;3.92;2.05;;;;;;;;;;5069783;28;20036;-89
2022/06/21 11:37:06;;;;;;;3.70;2.00;;;;;;;;;;5090762;28;20024;-88
2022/06/21 11:39:36;;;;;;;1.70;1.60;;;;;;;;;;5073277;28;20046;-88
2022/06/21 11:42:10;;;;;;;2.30;1.90;;;;;;;;;;5067247;28;20072;-87
2022/06/21 11:45:03;;;;;;;2.55;1.70;;;;;;;;;;5087108;28;20020;-89
2022/06/21 11:48:06;;;;;;;3.30;2.13;;;;;;;;;;5082310;28;20024;-90
2022/06/21 11:50:53;;;;;;;3.28;2.28;;;;;;;;;;5070759;28;20032;-89
2022/06/21 11:53:34;;;;;;;1.98;1.50;;;;;;;;;;5073549;28;20028;-88
2022/06/21 11:56:08;;;;;;;2.58;1.60;;;;;;;;;;5073602;28;20027;-88
2022/06/21 11:58:47;;;;;;;2.20;1.52;;;;;;;;;;5067341;28;20044;-88
2022/06/21 12:01:34;;;;;;;1.75;1.63;;;;;;;;;;5086128;28;20043;-91
2022/06/21 12:04:41;;;;;;;2.08;1.48;;;;;;;;;;5088606;28;20066;-89
2022/06/21 12:07:31;;;;;;;1.92;1.50;;;;;;;;;;5056432;28;20029;-89
2022/06/21 12:10:14;;;;;;;2.17;1.73;;;;;;;;;;5089382;28;20032;-89
2022/06/21 12:13:03;;;;;;;2.03;1.50;;;;;;;;;;5086564;28;20476;-89
2022/06/21 12:16:16;;;;;;;1.60;1.50;;;;;;;;;;5059857;28;20099;-90
2022/06/21 12:18:45;;;;;;;1.40;1.30;;;;;;;;;;5066006;28;20040;-91
2022/06/21 12:21:14;;;;;;;1.70;1.60;;;;;;;;;;5089348;28;20365;-88
2022/06/21 12:23:53;;;;;;;2.75;1.67;;;;;;;;;;5090721;28;20020;-90
2022/06/21 12:26:24;;;;;;;2.92;1.60;;;;;;;;;;5074384;28;20036;-89
2022/06/21 12:28:52;;;;;;;2.03;1.70;;;;;;;;;;5079734;28;20066;-91
2022/06/21 12:31:31;;;;;;;2.25;1.50;;;;;;;;;;5076870;28;20035;-86
2022/06/21 12:34:06;;;;;;;1.70;1.40;;;;;;;;;;5094846;28;20040;-90
2022/06/21 12:36:48;;;;;;;1.70;1.50;;;;;;;;;;5095762;28;20086;-88
2022/06/21 12:39:33;;;;;;;1.50;1.40;;;;;;;;;;5104991;28;20048;-87
2022/06/21 12:42:27;;;;;;;1.85;1.35;;;;;;;;;;5109490;28;20491;-89
2022/06/21 12:45:07;;;;;;;3.67;1.40;;;;;;;;;;5090123;28;20023;-87
2022/06/21 12:47:42;;;;;;;1.50;1.40;;;;;;;;;;5110052;28;20032;-89
2022/06/21 12:50:38;;;;;;;2.00;1.33;;;;;;;;;;5108053;28;20088;-88
2022/06/21 12:53:07;;;;;;;1.40;1.30;;;;;;;;;;5131257;27;20023;-88
2022/06/21 12:55:55;;;;;;;2.00;1.38;;;;;;;;;;5136279;27;20467;-89
2022/06/21 12:58:58;;;;;;;1.77;1.38;;;;;;;;;;5111950;27;20494;-89
2022/06/21 13:01:40;;;;;;;2.05;1.40;;;;;;;;;;5115393;27;20482;-89
2022/06/21 13:04:17;;;;;;;2.35;1.30;;;;;;;;;;5129942;27;20463;-89
2022/06/21 13:07:01;;;;;;;1.70;1.10;;;;;;;;;;5117251;27;20376;-89
2022/06/21 13:09:48;;;;;;;2.10;1.40;;;;;;;;;;5131784;27;20036;-88
2022/06/21 13:12:47;;;;;;;2.35;1.30;;;;;;;;;;5134628;27;20027;-90
2022/06/21 13:15:30;;;;;;;1.85;1.50;;;;;;;;;;5130596;27;20064;-87
2022/06/21 13:17:58;;;;;;;1.40;1.30;;;;;;;;;;5133251;27;20011;-85
2022/06/21 13:20:55;;;;;;;2.95;1.33;;;;;;;;;;5128277;27;20051;-88
2022/06/21 13:23:52;;;;;;;1.30;1.20;;;;;;;;;;5132279;27;20102;-86
2022/06/21 13:26:53;;;;;;;2.95;1.50;;;;;;;;;;5094877;27;20059;-87
2022/06/21 13:29:36;;;;;;;1.60;1.50;;;;;;;;;;5128961;27;20384;-86
2022/06/21 13:32:06;;;;;;;1.63;1.30;;;;;;;;;;5112110;27;20075;-87
2022/06/21 13:35:09;;;;;;;1.50;1.40;;;;;;;;;;5132582;27;20027;-88
2022/06/21 13:38:00;;;;;;;1.65;1.20;;;;;;;;;;5111959;27;20054;-82
2022/06/21 13:40:44;;;;;;;1.65;1.30;;;;;;;;;;5112064;28;20036;-88
2022/06/21 13:43:24;;;;;;;1.48;1.20;;;;;;;;;;5110235;27;20356;-87
2022/06/21 13:45:59;;;;;;;1.52;1.33;;;;;;;;;;5114614;28;20365;-88
2022/06/21 13:48:40;;;;;;;2.10;1.27;;;;;;;;;;5114027;28;20024;-89
2022/06/21 13:51:28;;;;;;;1.50;1.40;;;;;;;;;;5094866;28;20020;-89
2022/06/21 13:53:58;;;;;;;1.45;1.30;;;;;;;;;;5113404;28;20111;-87
2022/06/21 13:56:49;;;;;;;2.70;1.40;;;;;;;;;;5115766;28;20395;-90
2022/06/21 13:59:28;;;;;;;1.90;1.40;;;;;;;;;;5115539;28;20038;-89
2022/06/21 14:02:10;;;;;;;1.60;1.50;;;;;;;;;;5097124;28;20034;-89
2022/06/21 14:04:43;;;;;;;1.30;1.20;;;;;;;;;;5095053;28;20052;-87
2022/06/21 14:07:18;;;;;;;3.35;1.60;;;;;;;;;;5114437;28;20407;-87
2022/06/21 14:10:13;;;;;;;2.00;1.65;;;;;;;;;;5096760;28;20093;-90
2022/06/21 14:12:51;;;;;;;1.70;1.60;;;;;;;;;;5096867;28;20031;-90
2022/06/21 14:15:28;;;;;;;1.77;1.50;;;;;;;;;;5114611;28;20076;-88
2022/06/21 14:18:11;;;;;;;1.85;1.52;;;;;;;;;;5096888;28;20027;-87
2022/06/21 14:21:06;;;;;;;1.55;1.45;;;;;;;;;;5096828;27;20031;-86
2022/06/21 14:23:34;;;;;;;2.08;1.50;;;;;;;;;;5114169;27;20036;-88
2022/06/21 14:26:26;;;;;;;2.38;1.63;;;;;;;;;;5097770;28;20023;-89
2022/06/21 14:28:58;;;;;;;2.25;1.70;;;;;;;;;;5117533;27;20471;-89
2022/06/21 14:31:36;;;;;;;2.53;1.60;;;;;;;;;;5114163;28;20110;-89
2022/06/21 14:34:23;;;;;;;2.45;1.70;;;;;;;;;;5110648;28;20093;-89
2022/06/21 14:37:01;;;;;;;1.50;1.40;;;;;;;;;;5112739;28;20019;-89
2022/06/21 14:39:45;;;;;;;1.73;1.60;;;;;;;;;;5117150;27;20055;-86
2022/06/21 14:42:36;;;;;;;2.33;1.60;;;;;;;;;;5109068;28;20034;-85
2022/06/21 14:45:10;;;;;;;3.13;1.77;;;;;;;;;;5113349;28;20028;-88
2022/06/21 14:47:46;;;;;;;1.70;1.60;;;;;;;;;;5115275;27;20019;-90
2022/06/21 14:50:40;;;;;;;2.03;1.70;;;;;;;;;;5112505;28;20486;-87
2022/06/21 14:53:34;;;;;;;2.63;1.70;;;;;;;;;;5093440;28;20047;-89
2022/06/21 14:56:22;;;;;;;2.00;1.70;;;;;;;;;;5094013;28;20031;-89
2022/06/21 14:58:58;;;;;;;1.55;1.40;;;;;;;;;;5095433;28;20035;-89
2022/06/21 15:01:36;;;;;;;2.47;1.63;;;;;;;;;;5109299;28;20677;-89
2022/06/21 15:04:26;;;;;;;2.10;1.67;;;;;;;;;;5115045;27;20019;-89
2022/06/21 15:07:30;;;;;;;2.38;1.73;;;;;;;;;;5092853;28;20386;-89
2022/06/21 15:10:00;;;;;;;2.10;1.80;;;;;;;;;;5082528;28;20038;-88
2022/06/21 15:12:30;;;;;;;2.38;1.60;;;;;;;;;;5112448;28;20050;-90
2022/06/21 15:14:59;;;;;;;2.05;1.77;;;;;;;;;;5113488;28;20448;-88
2022/06/21 15:17:34;;;;;;;1.90;1.70;;;;;;;;;;5113219;28;20027;-89
2022/06/21 15:20:13;;;;;;;2.47;1.70;;;;;;;;;;5094330;28;20525;-89
2022/06/21 15:23:01;;;;;;;2.75;1.70;;;;;;;;;;5095850;28;20024;-87
2022/06/21 15:25:30;;;;;;;2.30;2.10;;;;;;;;;;5112338;28;20028;-87
2022/06/21 15:28:16;;;;;;;2.13;1.60;;;;;;;;;;5094875;28;20055;-88
2022/06/21 15:30:53;;;;;;;2.83;1.88;;;;;;;;;;5112146;28;20027;-86
2022/06/21 15:33:37;;;;;;;1.77;1.60;;;;;;;;;;5095793;28;20027;-89
2022/06/21 15:36:20;;;;;;;2.75;1.70;;;;;;;;;;5091347;28;20028;-89
2022/06/21 15:39:01;;;;;;;1.98;1.60;;;;;;;;;;5110827;28;20044;-88
2022/06/21 15:41:37;;;;;;;1.60;1.45;;;;;;;;;;5094298;28;20034;-87
2022/06/21 15:44:28;;;;;;;2.47;1.63;;;;;;;;;;5094885;28;20027;-87
2022/06/21 15:50:32;;;;;;;1.65;1.55;;;;;;;;;;5112173;28;20111;-88
2022/06/21 15:53:07;;;;;;;2.97;1.50;;;;;;;;;;5111480;28;20026;-88
2022/06/21 15:55:51;;;;;;;2.88;1.70;;;;;;;;;;5094656;28;20023;-88
2022/06/21 15:58:53;;;;;;;1.90;1.50;;;;;;;;;;5113372;28;20236;-86
2022/06/21 16:01:31;;;;;;;2.50;1.50;;;;;;;;;;5113629;28;20027;-89
2022/06/21 16:04:28;;;;;;;3.40;1.65;;;;;;;;;;5116971;27;20479;-88
2022/06/21 16:07:03;;;;;;;1.70;1.60;;;;;;;;;;5116245;28;20027;-90
2022/06/21 16:09:35;;;;;;;2.33;1.60;;;;;;;;;;5116534;28;20080;-90
2022/06/21 16:12:05;;;;;;;2.22;1.75;;;;;;;;;;5098382;28;20509;-88
2022/06/21 16:14:45;;;;;;;2.33;1.98;;;;;;;;;;5098618;28;20468;-88
2022/06/21 16:17:25;;;;;;;2.17;1.50;;;;;;;;;;5097374;28;20030;-88